sensor_id;sensor_type;location;lat;lon;timestamp;P1;durP1;ratioP1;P2;durP2;ratioP2
66669;SDS011;53568;52.164;4.472;2023-08-06T00:00:21;8.48;;;8.48;;
66669;SDS011;53568;52.164;4.472;2023-08-06T00:02:48;8.59;;;8.59;;
66669;SDS011;53568;52.164;4.472;2023-08-06T00:05:14;8.30;;;8.30;;
66669;SDS011;53568;52.164;4.472;2023-08-06T00:07:43;8.13;;;8.13;;
66669;SDS011;53568;52.164;4.472;2023-08-06T00:10:10;8.03;;;8.03;;
66669;SDS011;53568;52.164;4.472;2023-08-06T00:12:35;8.06;;;8.06;;
66669;SDS011;53568;52.164;4.472;2023-08-06T00:15:01;8.11;;;8.11;;
66669;SDS011;53568;52.164;4.472;2023-08-06T00:17:27;8.61;;;8.61;;
66669;SDS011;53568;52.164;4.472;2023-08-06T00:19:52;8.17;;;8.17;;
66669;SDS011;53568;52.164;4.472;2023-08-06T00:22:18;9.08;;;9.08;;
66669;SDS011;53568;52.164;4.472;2023-08-06T00:24:43;9.17;;;9.17;;
66669;SDS011;53568;52.164;4.472;2023-08-06T00:27:09;8.84;;;8.82;;
66669;SDS011;53568;52.164;4.472;2023-08-06T00:29:34;9.06;;;9.06;;
66669;SDS011;53568;52.164;4.472;2023-08-06T00:32:00;8.77;;;8.77;;
66669;SDS011;53568;52.164;4.472;2023-08-06T00:34:25;8.43;;;8.43;;
66669;SDS011;53568;52.164;4.472;2023-08-06T00:36:51;8.55;;;8.55;;
66669;SDS011;53568;52.164;4.472;2023-08-06T00:39:16;8.29;;;8.29;;
66669;SDS011;53568;52.164;4.472;2023-08-06T00:41:42;8.09;;;8.09;;
66669;SDS011;53568;52.164;4.472;2023-08-06T00:44:07;8.15;;;8.15;;
66669;SDS011;53568;52.164;4.472;2023-08-06T00:46:33;7.95;;;7.93;;
66669;SDS011;53568;52.164;4.472;2023-08-06T00:48:58;7.74;;;7.74;;
66669;SDS011;53568;52.164;4.472;2023-08-06T00:51:25;7.62;;;7.62;;
66669;SDS011;53568;52.164;4.472;2023-08-06T00:53:52;7.55;;;7.55;;
66669;SDS011;53568;52.164;4.472;2023-08-06T00:56:18;7.45;;;7.45;;
66669;SDS011;53568;52.164;4.472;2023-08-06T00:58:44;6.60;;;6.60;;
66669;SDS011;53568;52.164;4.472;2023-08-06T01:01:10;6.45;;;6.45;;
66669;SDS011;53568;52.164;4.472;2023-08-06T01:03:36;5.53;;;5.53;;
66669;SDS011;53568;52.164;4.472;2023-08-06T01:06:02;5.01;;;5.01;;
66669;SDS011;53568;52.164;4.472;2023-08-06T01:09:01;4.55;;;4.55;;
66669;SDS011;53568;52.164;4.472;2023-08-06T01:11:27;5.13;;;5.13;;
66669;SDS011;53568;52.164;4.472;2023-08-06T01:16:41;5.08;;;5.08;;
66669;SDS011;53568;52.164;4.472;2023-08-06T01:19:19;4.98;;;4.98;;
66669;SDS011;53568;52.164;4.472;2023-08-06T01:21:46;4.37;;;4.37;;
66669;SDS011;53568;52.164;4.472;2023-08-06T01:24:11;4.62;;;4.62;;
66669;SDS011;53568;52.164;4.472;2023-08-06T01:26:45;5.30;;;5.30;;
66669;SDS011;53568;52.164;4.472;2023-08-06T01:29:40;5.33;;;5.33;;
66669;SDS011;53568;52.164;4.472;2023-08-06T01:32:21;5.00;;;5.00;;
66669;SDS011;53568;52.164;4.472;2023-08-06T01:34:50;5.07;;;5.07;;
66669;SDS011;53568;52.164;4.472;2023-08-06T01:37:18;5.04;;;5.04;;
66669;SDS011;53568;52.164;4.472;2023-08-06T01:39:43;5.28;;;5.27;;
66669;SDS011;53568;52.164;4.472;2023-08-06T01:42:09;5.25;;;5.21;;
66669;SDS011;53568;52.164;4.472;2023-08-06T01:44:34;4.84;;;4.84;;
66669;SDS011;53568;52.164;4.472;2023-08-06T01:47:00;4.69;;;4.69;;
66669;SDS011;53568;52.164;4.472;2023-08-06T01:49:25;4.93;;;4.93;;
66669;SDS011;53568;52.164;4.472;2023-08-06T01:51:51;3.94;;;3.94;;
66669;SDS011;53568;52.164;4.472;2023-08-06T01:54:16;3.46;;;3.46;;
66669;SDS011;53568;52.164;4.472;2023-08-06T01:56:42;3.55;;;3.55;;
66669;SDS011;53568;52.164;4.472;2023-08-06T01:59:07;3.45;;;3.45;;
66669;SDS011;53568;52.164;4.472;2023-08-06T02:01:32;3.43;;;3.43;;
66669;SDS011;53568;52.164;4.472;2023-08-06T02:03:58;2.86;;;2.86;;
66669;SDS011;53568;52.164;4.472;2023-08-06T02:06:23;2.62;;;2.62;;
66669;SDS011;53568;52.164;4.472;2023-08-06T02:08:49;2.57;;;2.57;;
66669;SDS011;53568;52.164;4.472;2023-08-06T02:11:15;2.57;;;2.57;;
66669;SDS011;53568;52.164;4.472;2023-08-06T02:13:40;3.45;;;3.45;;
66669;SDS011;53568;52.164;4.472;2023-08-06T02:16:09;3.32;;;3.32;;
66669;SDS011;53568;52.164;4.472;2023-08-06T02:18:34;3.45;;;3.45;;
66669;SDS011;53568;52.164;4.472;2023-08-06T02:21:00;3.72;;;3.72;;
66669;SDS011;53568;52.164;4.472;2023-08-06T02:23:26;3.84;;;3.84;;
66669;SDS011;53568;52.164;4.472;2023-08-06T02:26:01;4.64;;;4.64;;
66669;SDS011;53568;52.164;4.472;2023-08-06T02:28:28;5.10;;;5.10;;
66669;SDS011;53568;52.164;4.472;2023-08-06T02:30:55;5.39;;;5.39;;
66669;SDS011;53568;52.164;4.472;2023-08-06T02:33:20;5.65;;;5.65;;
66669;SDS011;53568;52.164;4.472;2023-08-06T02:35:46;6.28;;;6.28;;
66669;SDS011;53568;52.164;4.472;2023-08-06T02:38:11;6.12;;;6.12;;
66669;SDS011;53568;52.164;4.472;2023-08-06T02:40:42;6.27;;;6.27;;
66669;SDS011;53568;52.164;4.472;2023-08-06T02:43:09;7.08;;;7.08;;
66669;SDS011;53568;52.164;4.472;2023-08-06T02:45:36;6.90;;;6.90;;
66669;SDS011;53568;52.164;4.472;2023-08-06T02:48:01;7.30;;;7.30;;
66669;SDS011;53568;52.164;4.472;2023-08-06T02:50:27;7.13;;;7.13;;
66669;SDS011;53568;52.164;4.472;2023-08-06T02:52:53;7.23;;;7.23;;
66669;SDS011;53568;52.164;4.472;2023-08-06T02:55:19;7.15;;;7.15;;
66669;SDS011;53568;52.164;4.472;2023-08-06T02:57:44;7.21;;;7.21;;
66669;SDS011;53568;52.164;4.472;2023-08-06T03:00:10;7.01;;;7.01;;
66669;SDS011;53568;52.164;4.472;2023-08-06T03:02:36;6.94;;;6.94;;
66669;SDS011;53568;52.164;4.472;2023-08-06T03:05:02;7.52;;;7.52;;
66669;SDS011;53568;52.164;4.472;2023-08-06T03:07:29;8.28;;;8.28;;
66669;SDS011;53568;52.164;4.472;2023-08-06T03:09:54;8.62;;;8.62;;
66669;SDS011;53568;52.164;4.472;2023-08-06T03:12:20;9.23;;;9.23;;
66669;SDS011;53568;52.164;4.472;2023-08-06T03:14:45;9.49;;;9.49;;
66669;SDS011;53568;52.164;4.472;2023-08-06T03:17:11;10.39;;;10.39;;
66669;SDS011;53568;52.164;4.472;2023-08-06T03:19:37;10.99;;;10.99;;
66669;SDS011;53568;52.164;4.472;2023-08-06T03:22:02;12.40;;;12.40;;
66669;SDS011;53568;52.164;4.472;2023-08-06T03:24:28;12.63;;;12.63;;
66669;SDS011;53568;52.164;4.472;2023-08-06T03:26:54;14.26;;;14.24;;
66669;SDS011;53568;52.164;4.472;2023-08-06T03:29:19;14.50;;;14.50;;
66669;SDS011;53568;52.164;4.472;2023-08-06T03:31:46;10.42;;;10.42;;
66669;SDS011;53568;52.164;4.472;2023-08-06T03:34:11;7.70;;;7.70;;
66669;SDS011;53568;52.164;4.472;2023-08-06T03:36:37;5.80;;;5.80;;
66669;SDS011;53568;52.164;4.472;2023-08-06T03:39:02;4.63;;;4.63;;
66669;SDS011;53568;52.164;4.472;2023-08-06T03:41:28;3.94;;;3.94;;
66669;SDS011;53568;52.164;4.472;2023-08-06T03:43:53;3.77;;;3.77;;
66669;SDS011;53568;52.164;4.472;2023-08-06T03:46:19;3.82;;;3.82;;
66669;SDS011;53568;52.164;4.472;2023-08-06T03:48:44;3.70;;;3.69;;
66669;SDS011;53568;52.164;4.472;2023-08-06T03:51:10;3.69;;;3.69;;
66669;SDS011;53568;52.164;4.472;2023-08-06T03:53:35;3.69;;;3.69;;
66669;SDS011;53568;52.164;4.472;2023-08-06T03:56:01;3.78;;;3.78;;
66669;SDS011;53568;52.164;4.472;2023-08-06T03:58:26;3.87;;;3.87;;
66669;SDS011;53568;52.164;4.472;2023-08-06T04:00:59;3.69;;;3.69;;
66669;SDS011;53568;52.164;4.472;2023-08-06T04:03:25;3.86;;;3.86;;
66669;SDS011;53568;52.164;4.472;2023-08-06T04:05:51;3.93;;;3.93;;
66669;SDS011;53568;52.164;4.472;2023-08-06T04:08:16;3.88;;;3.88;;
66669;SDS011;53568;52.164;4.472;2023-08-06T04:10:42;3.89;;;3.89;;
66669;SDS011;53568;52.164;4.472;2023-08-06T04:13:07;3.87;;;3.87;;
66669;SDS011;53568;52.164;4.472;2023-08-06T04:15:36;3.59;;;3.59;;
66669;SDS011;53568;52.164;4.472;2023-08-06T04:18:01;3.88;;;3.88;;
66669;SDS011;53568;52.164;4.472;2023-08-06T04:20:27;4.00;;;3.97;;
66669;SDS011;53568;52.164;4.472;2023-08-06T04:22:54;3.65;;;3.64;;
66669;SDS011;53568;52.164;4.472;2023-08-06T04:25:20;3.83;;;3.83;;
66669;SDS011;53568;52.164;4.472;2023-08-06T04:27:49;3.61;;;3.60;;
66669;SDS011;53568;52.164;4.472;2023-08-06T04:30:15;3.85;;;3.85;;
66669;SDS011;53568;52.164;4.472;2023-08-06T04:32:40;4.01;;;4.01;;
66669;SDS011;53568;52.164;4.472;2023-08-06T04:35:06;4.35;;;4.35;;
66669;SDS011;53568;52.164;4.472;2023-08-06T04:37:32;4.39;;;4.39;;
66669;SDS011;53568;52.164;4.472;2023-08-06T04:39:57;4.44;;;4.44;;
66669;SDS011;53568;52.164;4.472;2023-08-06T04:42:23;4.53;;;4.53;;
66669;SDS011;53568;52.164;4.472;2023-08-06T04:44:49;4.28;;;4.28;;
66669;SDS011;53568;52.164;4.472;2023-08-06T04:47:15;4.46;;;4.46;;
66669;SDS011;53568;52.164;4.472;2023-08-06T04:49:40;4.37;;;4.37;;
66669;SDS011;53568;52.164;4.472;2023-08-06T04:52:06;4.39;;;4.39;;
66669;SDS011;53568;52.164;4.472;2023-08-06T04:54:31;4.48;;;4.48;;
66669;SDS011;53568;52.164;4.472;2023-08-06T04:56:59;4.56;;;4.56;;
66669;SDS011;53568;52.164;4.472;2023-08-06T04:59:25;4.43;;;4.43;;
66669;SDS011;53568;52.164;4.472;2023-08-06T05:01:50;4.76;;;4.76;;
66669;SDS011;53568;52.164;4.472;2023-08-06T05:04:16;4.37;;;4.37;;
66669;SDS011;53568;52.164;4.472;2023-08-06T05:06:41;4.57;;;4.57;;
66669;SDS011;53568;52.164;4.472;2023-08-06T05:09:07;4.46;;;4.46;;
66669;SDS011;53568;52.164;4.472;2023-08-06T05:11:32;4.32;;;4.32;;
66669;SDS011;53568;52.164;4.472;2023-08-06T05:13:58;4.36;;;4.36;;
66669;SDS011;53568;52.164;4.472;2023-08-06T05:16:24;4.43;;;4.43;;
66669;SDS011;53568;52.164;4.472;2023-08-06T05:18:49;4.33;;;4.33;;
66669;SDS011;53568;52.164;4.472;2023-08-06T05:21:15;4.44;;;4.44;;
66669;SDS011;53568;52.164;4.472;2023-08-06T05:23:41;4.14;;;4.13;;
66669;SDS011;53568;52.164;4.472;2023-08-06T05:26:07;4.10;;;4.10;;
66669;SDS011;53568;52.164;4.472;2023-08-06T05:28:33;4.15;;;4.15;;
66669;SDS011;53568;52.164;4.472;2023-08-06T05:31:02;4.07;;;4.06;;
66669;SDS011;53568;52.164;4.472;2023-08-06T05:33:28;4.06;;;4.06;;
66669;SDS011;53568;52.164;4.472;2023-08-06T05:35:54;4.33;;;4.33;;
66669;SDS011;53568;52.164;4.472;2023-08-06T05:38:19;4.16;;;4.16;;
66669;SDS011;53568;52.164;4.472;2023-08-06T05:40:45;4.35;;;4.34;;
66669;SDS011;53568;52.164;4.472;2023-08-06T05:43:10;3.95;;;3.93;;
66669;SDS011;53568;52.164;4.472;2023-08-06T05:45:35;3.65;;;3.64;;
66669;SDS011;53568;52.164;4.472;2023-08-06T05:48:01;3.43;;;3.43;;
66669;SDS011;53568;52.164;4.472;2023-08-06T05:50:26;3.28;;;3.28;;
66669;SDS011;53568;52.164;4.472;2023-08-06T05:52:52;3.20;;;3.18;;
66669;SDS011;53568;52.164;4.472;2023-08-06T05:55:18;3.31;;;3.28;;
66669;SDS011;53568;52.164;4.472;2023-08-06T05:57:44;2.97;;;2.94;;
66669;SDS011;53568;52.164;4.472;2023-08-06T06:00:10;2.77;;;2.74;;
66669;SDS011;53568;52.164;4.472;2023-08-06T06:02:36;2.53;;;2.51;;
66669;SDS011;53568;52.164;4.472;2023-08-06T06:05:02;2.63;;;2.60;;
66669;SDS011;53568;52.164;4.472;2023-08-06T06:07:27;2.51;;;2.48;;
66669;SDS011;53568;52.164;4.472;2023-08-06T06:09:53;2.56;;;2.55;;
66669;SDS011;53568;52.164;4.472;2023-08-06T06:12:18;2.34;;;2.31;;
66669;SDS011;53568;52.164;4.472;2023-08-06T06:14:44;2.24;;;2.20;;
66669;SDS011;53568;52.164;4.472;2023-08-06T06:17:09;2.03;;;2.01;;
66669;SDS011;53568;52.164;4.472;2023-08-06T06:19:35;2.02;;;2.00;;
66669;SDS011;53568;52.164;4.472;2023-08-06T06:22:01;1.96;;;1.93;;
66669;SDS011;53568;52.164;4.472;2023-08-06T06:24:26;1.79;;;1.77;;
66669;SDS011;53568;52.164;4.472;2023-08-06T06:26:52;1.68;;;1.64;;
66669;SDS011;53568;52.164;4.472;2023-08-06T06:29:17;1.54;;;1.50;;
66669;SDS011;53568;52.164;4.472;2023-08-06T06:31:42;1.60;;;1.54;;
66669;SDS011;53568;52.164;4.472;2023-08-06T06:34:08;1.72;;;1.62;;
66669;SDS011;53568;52.164;4.472;2023-08-06T06:36:33;1.64;;;1.55;;
66669;SDS011;53568;52.164;4.472;2023-08-06T06:38:59;1.62;;;1.53;;
66669;SDS011;53568;52.164;4.472;2023-08-06T06:41:24;1.58;;;1.49;;
66669;SDS011;53568;52.164;4.472;2023-08-06T06:43:51;1.52;;;1.42;;
66669;SDS011;53568;52.164;4.472;2023-08-06T06:46:17;1.46;;;1.38;;
66669;SDS011;53568;52.164;4.472;2023-08-06T06:48:42;1.63;;;1.55;;
66669;SDS011;53568;52.164;4.472;2023-08-06T06:51:08;1.77;;;1.66;;
66669;SDS011;53568;52.164;4.472;2023-08-06T06:53:33;1.64;;;1.52;;
66669;SDS011;53568;52.164;4.472;2023-08-06T06:56:02;1.70;;;1.58;;
66669;SDS011;53568;52.164;4.472;2023-08-06T06:58:29;1.63;;;1.53;;
66669;SDS011;53568;52.164;4.472;2023-08-06T07:00:56;1.59;;;1.52;;
66669;SDS011;53568;52.164;4.472;2023-08-06T07:03:21;1.63;;;1.56;;
66669;SDS011;53568;52.164;4.472;2023-08-06T07:05:47;1.50;;;1.43;;
66669;SDS011;53568;52.164;4.472;2023-08-06T07:08:13;1.52;;;1.47;;
66669;SDS011;53568;52.164;4.472;2023-08-06T07:10:40;1.57;;;1.52;;
66669;SDS011;53568;52.164;4.472;2023-08-06T07:13:06;1.63;;;1.59;;
66669;SDS011;53568;52.164;4.472;2023-08-06T07:15:32;1.71;;;1.67;;
66669;SDS011;53568;52.164;4.472;2023-08-06T07:17:57;1.87;;;1.83;;
66669;SDS011;53568;52.164;4.472;2023-08-06T07:20:23;1.79;;;1.74;;
66669;SDS011;53568;52.164;4.472;2023-08-06T07:22:48;1.68;;;1.62;;
66669;SDS011;53568;52.164;4.472;2023-08-06T07:25:15;1.83;;;1.77;;
66669;SDS011;53568;52.164;4.472;2023-08-06T07:27:42;1.61;;;1.56;;
66669;SDS011;53568;52.164;4.472;2023-08-06T07:30:08;1.60;;;1.57;;
66669;SDS011;53568;52.164;4.472;2023-08-06T07:32:33;1.60;;;1.58;;
66669;SDS011;53568;52.164;4.472;2023-08-06T07:34:59;1.50;;;1.48;;
66669;SDS011;53568;52.164;4.472;2023-08-06T07:37:29;1.58;;;1.56;;
66669;SDS011;53568;52.164;4.472;2023-08-06T07:39:57;1.54;;;1.52;;
66669;SDS011;53568;52.164;4.472;2023-08-06T07:42:23;1.57;;;1.54;;
66669;SDS011;53568;52.164;4.472;2023-08-06T07:44:53;1.49;;;1.46;;
66669;SDS011;53568;52.164;4.472;2023-08-06T07:47:20;1.57;;;1.54;;
66669;SDS011;53568;52.164;4.472;2023-08-06T07:49:46;1.58;;;1.56;;
66669;SDS011;53568;52.164;4.472;2023-08-06T07:52:11;1.53;;;1.51;;
66669;SDS011;53568;52.164;4.472;2023-08-06T07:54:37;1.54;;;1.49;;
66669;SDS011;53568;52.164;4.472;2023-08-06T07:57:03;1.66;;;1.62;;
66669;SDS011;53568;52.164;4.472;2023-08-06T07:59:28;1.77;;;1.74;;
66669;SDS011;53568;52.164;4.472;2023-08-06T08:01:54;1.77;;;1.73;;
66669;SDS011;53568;52.164;4.472;2023-08-06T08:04:19;1.74;;;1.71;;
66669;SDS011;53568;52.164;4.472;2023-08-06T08:06:46;1.72;;;1.67;;
66669;SDS011;53568;52.164;4.472;2023-08-06T08:09:12;1.71;;;1.67;;
66669;SDS011;53568;52.164;4.472;2023-08-06T08:11:38;1.84;;;1.79;;
66669;SDS011;53568;52.164;4.472;2023-08-06T08:14:04;1.85;;;1.82;;
66669;SDS011;53568;52.164;4.472;2023-08-06T08:16:30;1.89;;;1.86;;
66669;SDS011;53568;52.164;4.472;2023-08-06T08:18:55;1.79;;;1.76;;
66669;SDS011;53568;52.164;4.472;2023-08-06T08:21:21;2.03;;;2.01;;
66669;SDS011;53568;52.164;4.472;2023-08-06T08:23:49;2.09;;;2.07;;
66669;SDS011;53568;52.164;4.472;2023-08-06T08:26:14;2.14;;;2.13;;
66669;SDS011;53568;52.164;4.472;2023-08-06T08:28:40;2.17;;;2.16;;
66669;SDS011;53568;52.164;4.472;2023-08-06T08:31:07;1.98;;;1.95;;
66669;SDS011;53568;52.164;4.472;2023-08-06T08:33:34;2.04;;;2.01;;
66669;SDS011;53568;52.164;4.472;2023-08-06T08:36:00;2.38;;;2.35;;
66669;SDS011;53568;52.164;4.472;2023-08-06T08:38:25;2.34;;;2.30;;
66669;SDS011;53568;52.164;4.472;2023-08-06T08:40:51;2.36;;;2.31;;
66669;SDS011;53568;52.164;4.472;2023-08-06T08:43:20;2.23;;;2.19;;
66669;SDS011;53568;52.164;4.472;2023-08-06T08:45:47;2.33;;;2.30;;
66669;SDS011;53568;52.164;4.472;2023-08-06T08:48:16;2.26;;;2.22;;
66669;SDS011;53568;52.164;4.472;2023-08-06T08:50:45;2.36;;;2.32;;
66669;SDS011;53568;52.164;4.472;2023-08-06T08:53:15;2.20;;;2.19;;
66669;SDS011;53568;52.164;4.472;2023-08-06T08:55:42;2.25;;;2.23;;
66669;SDS011;53568;52.164;4.472;2023-08-06T08:58:11;2.03;;;2.02;;
66669;SDS011;53568;52.164;4.472;2023-08-06T09:00:37;2.05;;;2.05;;
66669;SDS011;53568;52.164;4.472;2023-08-06T09:03:04;2.04;;;2.04;;
66669;SDS011;53568;52.164;4.472;2023-08-06T09:05:31;2.01;;;2.00;;
66669;SDS011;53568;52.164;4.472;2023-08-06T09:08:07;2.05;;;2.04;;
66669;SDS011;53568;52.164;4.472;2023-08-06T09:10:38;2.00;;;1.99;;
66669;SDS011;53568;52.164;4.472;2023-08-06T09:13:05;2.00;;;1.99;;
66669;SDS011;53568;52.164;4.472;2023-08-06T09:15:31;1.95;;;1.93;;
66669;SDS011;53568;52.164;4.472;2023-08-06T09:17:58;1.87;;;1.85;;
66669;SDS011;53568;52.164;4.472;2023-08-06T09:20:24;2.04;;;2.02;;
66669;SDS011;53568;52.164;4.472;2023-08-06T09:22:49;1.94;;;1.92;;
66669;SDS011;53568;52.164;4.472;2023-08-06T09:25:22;1.97;;;1.95;;
66669;SDS011;53568;52.164;4.472;2023-08-06T09:27:53;1.77;;;1.74;;
66669;SDS011;53568;52.164;4.472;2023-08-06T09:30:29;1.70;;;1.67;;
66669;SDS011;53568;52.164;4.472;2023-08-06T09:32:58;1.60;;;1.59;;
66669;SDS011;53568;52.164;4.472;2023-08-06T09:35:27;1.87;;;1.86;;
66669;SDS011;53568;52.164;4.472;2023-08-06T09:38:06;1.79;;;1.77;;
66669;SDS011;53568;52.164;4.472;2023-08-06T09:40:33;1.76;;;1.74;;
66669;SDS011;53568;52.164;4.472;2023-08-06T09:42:59;1.76;;;1.75;;
66669;SDS011;53568;52.164;4.472;2023-08-06T09:45:30;1.50;;;1.49;;
66669;SDS011;53568;52.164;4.472;2023-08-06T09:48:03;1.73;;;1.72;;
66669;SDS011;53568;52.164;4.472;2023-08-06T09:50:32;1.80;;;1.79;;
66669;SDS011;53568;52.164;4.472;2023-08-06T09:53:03;1.88;;;1.87;;
66669;SDS011;53568;52.164;4.472;2023-08-06T09:55:30;1.73;;;1.72;;
66669;SDS011;53568;52.164;4.472;2023-08-06T09:57:57;1.43;;;1.41;;
66669;SDS011;53568;52.164;4.472;2023-08-06T10:00:23;1.61;;;1.59;;
66669;SDS011;53568;52.164;4.472;2023-08-06T10:02:49;1.81;;;1.78;;
66669;SDS011;53568;52.164;4.472;2023-08-06T10:05:19;1.69;;;1.66;;
66669;SDS011;53568;52.164;4.472;2023-08-06T10:07:46;1.55;;;1.52;;
66669;SDS011;53568;52.164;4.472;2023-08-06T10:10:13;1.75;;;1.72;;
66669;SDS011;53568;52.164;4.472;2023-08-06T10:12:46;1.58;;;1.56;;
66669;SDS011;53568;52.164;4.472;2023-08-06T10:15:19;1.73;;;1.71;;
66669;SDS011;53568;52.164;4.472;2023-08-06T10:17:50;1.77;;;1.75;;
66669;SDS011;53568;52.164;4.472;2023-08-06T10:20:21;1.67;;;1.66;;
66669;SDS011;53568;52.164;4.472;2023-08-06T10:23:09;1.66;;;1.65;;
66669;SDS011;53568;52.164;4.472;2023-08-06T10:25:34;1.69;;;1.68;;
66669;SDS011;53568;52.164;4.472;2023-08-06T10:28:01;1.87;;;1.86;;
66669;SDS011;53568;52.164;4.472;2023-08-06T10:30:34;1.60;;;1.59;;
66669;SDS011;53568;52.164;4.472;2023-08-06T10:33:10;1.49;;;1.48;;
66669;SDS011;53568;52.164;4.472;2023-08-06T10:38:21;1.47;;;1.47;;
66669;SDS011;53568;52.164;4.472;2023-08-06T10:40:48;1.62;;;1.60;;
66669;SDS011;53568;52.164;4.472;2023-08-06T10:43:27;1.60;;;1.58;;
66669;SDS011;53568;52.164;4.472;2023-08-06T10:45:57;1.75;;;1.74;;
66669;SDS011;53568;52.164;4.472;2023-08-06T10:48:45;1.69;;;1.67;;
66669;SDS011;53568;52.164;4.472;2023-08-06T10:51:11;1.60;;;1.58;;
66669;SDS011;53568;52.164;4.472;2023-08-06T10:53:46;1.82;;;1.79;;
66669;SDS011;53568;52.164;4.472;2023-08-06T10:56:16;1.88;;;1.86;;
66669;SDS011;53568;52.164;4.472;2023-08-06T10:58:44;1.85;;;1.83;;
66669;SDS011;53568;52.164;4.472;2023-08-06T11:01:11;1.69;;;1.67;;
66669;SDS011;53568;52.164;4.472;2023-08-06T11:03:37;1.63;;;1.61;;
66669;SDS011;53568;52.164;4.472;2023-08-06T11:06:04;1.59;;;1.57;;
66669;SDS011;53568;52.164;4.472;2023-08-06T11:08:36;1.67;;;1.63;;
66669;SDS011;53568;52.164;4.472;2023-08-06T11:11:09;1.63;;;1.59;;
66669;SDS011;53568;52.164;4.472;2023-08-06T11:13:40;1.85;;;1.81;;
66669;SDS011;53568;52.164;4.472;2023-08-06T11:16:06;1.79;;;1.75;;
66669;SDS011;53568;52.164;4.472;2023-08-06T11:18:32;1.71;;;1.69;;
66669;SDS011;53568;52.164;4.472;2023-08-06T11:20:59;1.53;;;1.52;;
66669;SDS011;53568;52.164;4.472;2023-08-06T11:23:29;1.45;;;1.44;;
66669;SDS011;53568;52.164;4.472;2023-08-06T11:25:55;1.42;;;1.41;;
66669;SDS011;53568;52.164;4.472;2023-08-06T11:28:21;1.32;;;1.31;;
66669;SDS011;53568;52.164;4.472;2023-08-06T11:30:47;1.50;;;1.49;;
66669;SDS011;53568;52.164;4.472;2023-08-06T11:33:14;1.34;;;1.32;;
66669;SDS011;53568;52.164;4.472;2023-08-06T11:35:39;1.08;;;1.07;;
66669;SDS011;53568;52.164;4.472;2023-08-06T11:38:06;1.07;;;1.05;;
66669;SDS011;53568;52.164;4.472;2023-08-06T11:40:32;1.23;;;1.18;;
66669;SDS011;53568;52.164;4.472;2023-08-06T11:42:58;1.07;;;1.01;;
66669;SDS011;53568;52.164;4.472;2023-08-06T11:45:24;1.22;;;1.14;;
66669;SDS011;53568;52.164;4.472;2023-08-06T11:47:50;1.40;;;1.32;;
66669;SDS011;53568;52.164;4.472;2023-08-06T11:50:27;1.03;;;0.98;;
66669;SDS011;53568;52.164;4.472;2023-08-06T11:52:59;1.04;;;0.99;;
66669;SDS011;53568;52.164;4.472;2023-08-06T11:55:27;1.34;;;1.28;;
66669;SDS011;53568;52.164;4.472;2023-08-06T11:57:53;1.13;;;1.09;;
66669;SDS011;53568;52.164;4.472;2023-08-06T12:00:20;1.23;;;1.20;;
66669;SDS011;53568;52.164;4.472;2023-08-06T12:02:49;0.95;;;0.93;;
66669;SDS011;53568;52.164;4.472;2023-08-06T12:05:20;1.08;;;1.05;;
66669;SDS011;53568;52.164;4.472;2023-08-06T12:07:51;0.93;;;0.90;;
66669;SDS011;53568;52.164;4.472;2023-08-06T12:10:20;1.01;;;0.98;;
66669;SDS011;53568;52.164;4.472;2023-08-06T12:12:47;0.99;;;0.97;;
66669;SDS011;53568;52.164;4.472;2023-08-06T12:15:13;0.94;;;0.92;;
66669;SDS011;53568;52.164;4.472;2023-08-06T12:17:39;0.97;;;0.95;;
66669;SDS011;53568;52.164;4.472;2023-08-06T12:20:06;0.99;;;0.96;;
66669;SDS011;53568;52.164;4.472;2023-08-06T12:22:33;1.05;;;1.02;;
66669;SDS011;53568;52.164;4.472;2023-08-06T12:25:06;0.81;;;0.78;;
66669;SDS011;53568;52.164;4.472;2023-08-06T12:27:36;0.88;;;0.84;;
66669;SDS011;53568;52.164;4.472;2023-08-06T12:30:04;1.03;;;0.99;;
66669;SDS011;53568;52.164;4.472;2023-08-06T12:32:30;0.93;;;0.90;;
66669;SDS011;53568;52.164;4.472;2023-08-06T12:34:56;0.96;;;0.93;;
66669;SDS011;53568;52.164;4.472;2023-08-06T12:37:21;1.03;;;1.00;;
66669;SDS011;53568;52.164;4.472;2023-08-06T12:39:48;1.08;;;1.04;;
66669;SDS011;53568;52.164;4.472;2023-08-06T12:42:13;0.95;;;0.92;;
66669;SDS011;53568;52.164;4.472;2023-08-06T12:44:39;0.96;;;0.92;;
66669;SDS011;53568;52.164;4.472;2023-08-06T12:47:04;1.08;;;1.03;;
66669;SDS011;53568;52.164;4.472;2023-08-06T12:49:30;1.06;;;1.01;;
66669;SDS011;53568;52.164;4.472;2023-08-06T12:51:56;1.00;;;0.95;;
66669;SDS011;53568;52.164;4.472;2023-08-06T12:54:25;0.96;;;0.92;;
66669;SDS011;53568;52.164;4.472;2023-08-06T12:56:51;1.26;;;1.21;;
66669;SDS011;53568;52.164;4.472;2023-08-06T12:59:17;1.35;;;1.28;;
66669;SDS011;53568;52.164;4.472;2023-08-06T13:01:43;1.51;;;1.42;;
66669;SDS011;53568;52.164;4.472;2023-08-06T13:04:09;1.43;;;1.35;;
66669;SDS011;53568;52.164;4.472;2023-08-06T13:06:36;1.47;;;1.40;;
66669;SDS011;53568;52.164;4.472;2023-08-06T13:09:05;1.32;;;1.25;;
66669;SDS011;53568;52.164;4.472;2023-08-06T13:11:32;1.29;;;1.20;;
66669;SDS011;53568;52.164;4.472;2023-08-06T13:14:03;1.40;;;1.29;;
66669;SDS011;53568;52.164;4.472;2023-08-06T13:16:33;1.30;;;1.21;;
66669;SDS011;53568;52.164;4.472;2023-08-06T13:18:59;1.16;;;1.09;;
66669;SDS011;53568;52.164;4.472;2023-08-06T13:21:31;1.32;;;1.24;;
66669;SDS011;53568;52.164;4.472;2023-08-06T13:23:59;1.70;;;1.52;;
66669;SDS011;53568;52.164;4.472;2023-08-06T13:26:26;2.71;;;2.23;;
66669;SDS011;53568;52.164;4.472;2023-08-06T13:28:52;2.93;;;2.25;;
66669;SDS011;53568;52.164;4.472;2023-08-06T13:31:18;3.27;;;2.33;;
66669;SDS011;53568;52.164;4.472;2023-08-06T13:33:43;3.37;;;2.31;;
66669;SDS011;53568;52.164;4.472;2023-08-06T13:36:09;4.13;;;2.75;;
66669;SDS011;53568;52.164;4.472;2023-08-06T13:38:34;4.42;;;2.89;;
66669;SDS011;53568;52.164;4.472;2023-08-06T13:41:01;5.12;;;3.30;;
66669;SDS011;53568;52.164;4.472;2023-08-06T13:43:26;4.39;;;2.79;;
66669;SDS011;53568;52.164;4.472;2023-08-06T13:45:52;4.28;;;2.72;;
66669;SDS011;53568;52.164;4.472;2023-08-06T13:48:18;4.44;;;2.79;;
66669;SDS011;53568;52.164;4.472;2023-08-06T13:50:43;4.11;;;2.55;;
66669;SDS011;53568;52.164;4.472;2023-08-06T13:53:10;4.67;;;2.92;;
66669;SDS011;53568;52.164;4.472;2023-08-06T13:55:35;4.65;;;2.92;;
66669;SDS011;53568;52.164;4.472;2023-08-06T13:58:01;4.22;;;2.64;;
66669;SDS011;53568;52.164;4.472;2023-08-06T14:00:26;3.59;;;2.26;;
66669;SDS011;53568;52.164;4.472;2023-08-06T14:02:52;3.13;;;2.01;;
66669;SDS011;53568;52.164;4.472;2023-08-06T14:05:17;3.35;;;2.13;;
66669;SDS011;53568;52.164;4.472;2023-08-06T14:07:43;3.48;;;2.20;;
66669;SDS011;53568;52.164;4.472;2023-08-06T14:10:08;3.92;;;2.45;;
66669;SDS011;53568;52.164;4.472;2023-08-06T14:12:34;6.35;;;3.91;;
66669;SDS011;53568;52.164;4.472;2023-08-06T14:15:00;6.68;;;4.11;;
66669;SDS011;53568;52.164;4.472;2023-08-06T14:17:27;6.65;;;4.10;;
66669;SDS011;53568;52.164;4.472;2023-08-06T14:19:52;6.33;;;3.91;;
66669;SDS011;53568;52.164;4.472;2023-08-06T14:22:18;6.22;;;3.91;;
66669;SDS011;53568;52.164;4.472;2023-08-06T14:24:43;5.86;;;3.75;;
66669;SDS011;53568;52.164;4.472;2023-08-06T14:27:08;5.54;;;3.55;;
66669;SDS011;53568;52.164;4.472;2023-08-06T14:29:34;5.08;;;3.25;;
66669;SDS011;53568;52.164;4.472;2023-08-06T14:32:00;5.29;;;3.38;;
66669;SDS011;53568;52.164;4.472;2023-08-06T14:34:25;5.85;;;3.81;;
66669;SDS011;53568;52.164;4.472;2023-08-06T14:36:51;5.82;;;3.71;;
66669;SDS011;53568;52.164;4.472;2023-08-06T14:39:16;6.33;;;4.01;;
66669;SDS011;53568;52.164;4.472;2023-08-06T14:41:42;5.65;;;3.52;;
66669;SDS011;53568;52.164;4.472;2023-08-06T14:44:07;5.48;;;3.36;;
66669;SDS011;53568;52.164;4.472;2023-08-06T14:46:33;5.35;;;3.33;;
66669;SDS011;53568;52.164;4.472;2023-08-06T14:48:58;4.37;;;2.77;;
66669;SDS011;53568;52.164;4.472;2023-08-06T14:51:24;4.74;;;3.00;;